Barkley Observed Data For Previous 48 Hours

Caption
Day and Hour Reservoir Elevation (behind dam)* Tailwater Elevation (below dam)* Average Hourly Discharge*
1/15/2018 1 AM CST 355.45 307.35 19,200
1/15/2018 2 AM CST 355.45 307.35 19,200
1/15/2018 3 AM CST 355.45 307.35 19,200
1/15/2018 4 AM CST 355.45 307.35 19,200
1/15/2018 5 AM CST 355.45 307.35 19,200
1/15/2018 6 AM CST 355.45 307.35 19,200
1/15/2018 7 AM CST 355.40 307.50 19,400
1/15/2018 8 AM CST 355.40 307.60 19,400
1/15/2018 9 AM CST 355.40 307.70 19,400
1/15/2018 10 AM CST 355.40 307.80 19,400
1/15/2018 11 AM CST 355.35 307.85 19,600
1/15/2018 12 PM CST 355.40 307.20 9,600
1/15/2018 1 PM CST 355.45 306.95 9,600
1/15/2018 2 PM CST 355.45 306.85 9,500
1/15/2018 3 PM CST 355.45 306.85 9,500
1/15/2018 4 PM CST 355.35 308.35 19,600
1/15/2018 5 PM CST 355.25 309.85 30,600
1/15/2018 6 PM CST 355.20 310.50 31,200
1/15/2018 7 PM CST 355.15 310.85 31,500
1/15/2018 8 PM CST 355.15 311.05 31,500
1/15/2018 9 PM CST 355.05 310.05 20,600
1/15/2018 10 PM CST 354.95 309.85 20,600
1/15/2018 11 PM CST 354.95 309.75 20,400
1/16/2018 12 AM CST 354.95 309.55 20,400
1/16/2018 1 AM CST 354.85 311.05 31,800
1/16/2018 2 AM CST 354.85 311.65 32,400
1/16/2018 3 AM CST 354.85 311.95 32,700
1/16/2018 4 AM CST 354.85 312.15 32,700
1/16/2018 5 AM CST 354.85 312.35 33,000
1/16/2018 6 AM CST 354.85 312.55 33,300
1/16/2018 7 AM CST 354.85 312.75 33,300
1/16/2018 8 AM CST 354.80 312.80 33,600
1/16/2018 9 AM CST 354.75 312.85 33,600
1/16/2018 10 AM CST 354.75 312.95 33,600
1/16/2018 11 AM CST 354.70 313.10 33,900
1/16/2018 12 PM CST 354.70 313.20 33,900
1/16/2018 1 PM CST 354.70 313.30 34,200
1/16/2018 2 PM CST 354.70 313.50 34,200
1/16/2018 3 PM CST 354.70 313.60 34,500
1/16/2018 4 PM CST 354.70 313.70 34,500
1/16/2018 5 PM CST 354.75 313.75 34,500
1/16/2018 6 PM CST 354.70 313.80 34,500
1/16/2018 7 PM CST 354.70 313.90 34,800
1/16/2018 8 PM CST 354.65 314.15 35,100
1/16/2018 9 PM CST 354.65 314.15 35,100
1/16/2018 10 PM CST 354.65 314.25 35,400
1/16/2018 11 PM CST 354.65 314.25 35,400
1/17/2018 12 AM CST 354.60 314.30 35,400
1/17/2018 1 AM CST 354.60 314.40 35,000
1/17/2018 2 AM CST 354.60 314.50 35,700
1/17/2018 3 AM CST 354.60 314.60 35,300
1/17/2018 4 AM CST 354.60 314.70 36,000
1/17/2018 5 AM CST 354.60 314.80 35,600
1/17/2018 6 AM CST 354.55 314.85 36,300
1/17/2018 7 AM CST 354.55 314.95 36,300
1/17/2018 8 AM CST 354.55 315.05 36,300
1/17/2018 9 AM CST 354.55 315.15 36,600
1/17/2018 10 AM CST 354.55 315.25 36,600
1/17/2018 11 AM CST 354.55 315.35 36,900
1/17/2018 12 PM CST 354.50 315.40 36,900
1/17/2018 1 PM CST 354.50 315.50 37,050
1/17/2018 2 PM CST 354.50 315.60 37,200
1/17/2018 3 PM CST 354.50 315.70 37,350
1/17/2018 4 PM CST 354.50 315.80 37,500
1/17/2018 5 PM CST 354.50 315.80 37,500
1/17/2018 6 PM CST 354.50 315.80 37,500

Elevations are in feet above sea level. Discharges are in cubic feet per second and are reported at the end of the hour.